sensor_id;sensor_type;location;lat;lon;timestamp;P1;durP1;ratioP1;P2;durP2;ratioP2
1404;SDS011;697;51.114;6.542;2022-09-01T00:00:04;2.20;;;2.00;;
1404;SDS011;697;51.114;6.542;2022-09-01T00:02:35;5.00;;;1.60;;
1404;SDS011;697;51.114;6.542;2022-09-01T00:05:02;2.37;;;1.67;;
1404;SDS011;697;51.114;6.542;2022-09-01T00:07:32;3.33;;;1.80;;
1404;SDS011;697;51.114;6.542;2022-09-01T00:10:00;2.60;;;1.70;;
1404;SDS011;697;51.114;6.542;2022-09-01T00:12:29;2.27;;;1.60;;
1404;SDS011;697;51.114;6.542;2022-09-01T00:14:58;2.50;;;1.40;;
1404;SDS011;697;51.114;6.542;2022-09-01T00:17:25;2.27;;;1.60;;
1404;SDS011;697;51.114;6.542;2022-09-01T00:19:52;4.77;;;1.37;;
1404;SDS011;697;51.114;6.542;2022-09-01T00:22:19;2.37;;;1.80;;
1404;SDS011;697;51.114;6.542;2022-09-01T00:24:46;1.80;;;1.63;;
1404;SDS011;697;51.114;6.542;2022-09-01T00:27:13;1.60;;;1.40;;
1404;SDS011;697;51.114;6.542;2022-09-01T00:29:40;5.30;;;1.90;;
1404;SDS011;697;51.114;6.542;2022-09-01T00:32:08;2.03;;;1.90;;
1404;SDS011;697;51.114;6.542;2022-09-01T00:34:35;2.90;;;1.70;;
1404;SDS011;697;51.114;6.542;2022-09-01T00:37:02;1.83;;;1.73;;
1404;SDS011;697;51.114;6.542;2022-09-01T00:39:29;3.00;;;1.77;;
1404;SDS011;697;51.114;6.542;2022-09-01T00:41:56;2.30;;;2.10;;
1404;SDS011;697;51.114;6.542;2022-09-01T00:44:23;3.10;;;2.03;;
1404;SDS011;697;51.114;6.542;2022-09-01T00:46:52;2.90;;;1.70;;
1404;SDS011;697;51.114;6.542;2022-09-01T00:49:23;6.03;;;1.90;;
1404;SDS011;697;51.114;6.542;2022-09-01T00:51:54;3.43;;;1.90;;
1404;SDS011;697;51.114;6.542;2022-09-01T00:54:25;2.80;;;2.00;;
1404;SDS011;697;51.114;6.542;2022-09-01T00:56:55;1.67;;;1.57;;
1404;SDS011;697;51.114;6.542;2022-09-01T00:59:23;1.93;;;1.70;;
1404;SDS011;697;51.114;6.542;2022-09-01T01:01:51;1.80;;;1.67;;
1404;SDS011;697;51.114;6.542;2022-09-01T01:04:18;1.60;;;1.50;;
1404;SDS011;697;51.114;6.542;2022-09-01T01:06:47;2.00;;;1.87;;
1404;SDS011;697;51.114;6.542;2022-09-01T01:09:23;1.97;;;1.80;;
1404;SDS011;697;51.114;6.542;2022-09-01T01:11:51;2.30;;;1.53;;
1404;SDS011;697;51.114;6.542;2022-09-01T01:14:25;2.57;;;1.50;;
1404;SDS011;697;51.114;6.542;2022-09-01T01:16:56;3.60;;;1.87;;
1404;SDS011;697;51.114;6.542;2022-09-01T01:19:30;2.30;;;2.10;;
1404;SDS011;697;51.114;6.542;2022-09-01T01:22:25;5.13;;;1.80;;
1404;SDS011;697;51.114;6.542;2022-09-01T01:25:17;1.90;;;1.30;;
1404;SDS011;697;51.114;6.542;2022-09-01T01:27:46;1.47;;;1.37;;
1404;SDS011;697;51.114;6.542;2022-09-01T01:30:14;2.10;;;1.63;;
1404;SDS011;697;51.114;6.542;2022-09-01T01:32:43;2.73;;;1.87;;
1404;SDS011;697;51.114;6.542;2022-09-01T01:35:12;3.47;;;2.00;;
1404;SDS011;697;51.114;6.542;2022-09-01T01:37:40;2.50;;;2.20;;
1404;SDS011;697;51.114;6.542;2022-09-01T01:40:09;1.57;;;1.47;;
1404;SDS011;697;51.114;6.542;2022-09-01T01:42:41;2.30;;;2.10;;
1404;SDS011;697;51.114;6.542;2022-09-01T01:45:10;1.97;;;1.77;;
1404;SDS011;697;51.114;6.542;2022-09-01T01:47:37;2.10;;;2.00;;
1404;SDS011;697;51.114;6.542;2022-09-01T01:50:04;2.07;;;1.80;;
1404;SDS011;697;51.114;6.542;2022-09-01T01:52:33;1.73;;;1.57;;
1404;SDS011;697;51.114;6.542;2022-09-01T01:55:00;2.60;;;2.33;;
1404;SDS011;697;51.114;6.542;2022-09-01T01:57:27;2.23;;;2.00;;
1404;SDS011;697;51.114;6.542;2022-09-01T02:00:00;2.43;;;1.80;;
1404;SDS011;697;51.114;6.542;2022-09-01T02:02:27;4.83;;;2.30;;
1404;SDS011;697;51.114;6.542;2022-09-01T02:04:54;1.60;;;1.50;;
1404;SDS011;697;51.114;6.542;2022-09-01T02:07:20;4.70;;;2.43;;
1404;SDS011;697;51.114;6.542;2022-09-01T02:09:47;4.90;;;2.03;;
1404;SDS011;697;51.114;6.542;2022-09-01T02:12:14;3.23;;;2.37;;
1404;SDS011;697;51.114;6.542;2022-09-01T02:14:43;4.63;;;2.13;;
1404;SDS011;697;51.114;6.542;2022-09-01T02:17:11;2.40;;;2.00;;
1404;SDS011;697;51.114;6.542;2022-09-01T02:19:38;3.13;;;2.30;;
1404;SDS011;697;51.114;6.542;2022-09-01T02:22:07;2.30;;;2.10;;
1404;SDS011;697;51.114;6.542;2022-09-01T02:24:35;3.27;;;2.30;;
1404;SDS011;697;51.114;6.542;2022-09-01T02:27:02;2.80;;;2.50;;
1404;SDS011;697;51.114;6.542;2022-09-01T02:29:30;2.67;;;2.10;;
1404;SDS011;697;51.114;6.542;2022-09-01T02:31:57;2.20;;;2.00;;
1404;SDS011;697;51.114;6.542;2022-09-01T02:34:26;3.67;;;2.43;;
1404;SDS011;697;51.114;6.542;2022-09-01T02:36:54;3.30;;;2.00;;
1404;SDS011;697;51.114;6.542;2022-09-01T02:39:23;2.40;;;2.20;;
1404;SDS011;697;51.114;6.542;2022-09-01T02:41:52;2.30;;;2.10;;
1404;SDS011;697;51.114;6.542;2022-09-01T02:44:19;2.27;;;2.07;;
1404;SDS011;697;51.114;6.542;2022-09-01T02:46:47;3.90;;;2.60;;
1404;SDS011;697;51.114;6.542;2022-09-01T02:49:16;2.77;;;2.47;;
1404;SDS011;697;51.114;6.542;2022-09-01T02:51:54;3.67;;;2.07;;
1404;SDS011;697;51.114;6.542;2022-09-01T02:54:24;3.13;;;2.47;;
1404;SDS011;697;51.114;6.542;2022-09-01T02:56:51;3.23;;;2.23;;
1404;SDS011;697;51.114;6.542;2022-09-01T02:59:19;2.70;;;2.47;;
1404;SDS011;697;51.114;6.542;2022-09-01T03:01:47;3.20;;;2.50;;
1404;SDS011;697;51.114;6.542;2022-09-01T03:04:16;3.67;;;2.60;;
1404;SDS011;697;51.114;6.542;2022-09-01T03:06:44;3.23;;;2.50;;
1404;SDS011;697;51.114;6.542;2022-09-01T03:09:16;2.90;;;2.10;;
1404;SDS011;697;51.114;6.542;2022-09-01T03:11:44;3.57;;;2.40;;
1404;SDS011;697;51.114;6.542;2022-09-01T03:14:12;4.30;;;2.90;;
1404;SDS011;697;51.114;6.542;2022-09-01T03:16:39;3.10;;;2.77;;
1404;SDS011;697;51.114;6.542;2022-09-01T03:19:06;2.57;;;2.37;;
1404;SDS011;697;51.114;6.542;2022-09-01T03:21:36;2.50;;;2.30;;
1404;SDS011;697;51.114;6.542;2022-09-01T03:24:05;3.10;;;2.57;;
1404;SDS011;697;51.114;6.542;2022-09-01T03:26:34;3.20;;;2.23;;
1404;SDS011;697;51.114;6.542;2022-09-01T03:29:02;3.50;;;2.50;;
1404;SDS011;697;51.114;6.542;2022-09-01T03:31:30;3.90;;;2.70;;
1404;SDS011;697;51.114;6.542;2022-09-01T03:33:57;3.03;;;2.73;;
1404;SDS011;697;51.114;6.542;2022-09-01T03:36:27;2.47;;;2.27;;
1404;SDS011;697;51.114;6.542;2022-09-01T03:38:57;3.20;;;1.97;;
1404;SDS011;697;51.114;6.542;2022-09-01T03:41:24;2.57;;;2.13;;
1404;SDS011;697;51.114;6.542;2022-09-01T03:43:55;2.70;;;2.40;;
1404;SDS011;697;51.114;6.542;2022-09-01T03:46:23;14.13;;;3.20;;
1404;SDS011;697;51.114;6.542;2022-09-01T03:48:51;3.03;;;2.10;;
1404;SDS011;697;51.114;6.542;2022-09-01T03:51:23;5.30;;;2.50;;
1404;SDS011;697;51.114;6.542;2022-09-01T03:53:56;3.67;;;2.20;;
1404;SDS011;697;51.114;6.542;2022-09-01T03:56:23;3.13;;;2.30;;
1404;SDS011;697;51.114;6.542;2022-09-01T03:58:52;2.90;;;2.70;;
1404;SDS011;697;51.114;6.542;2022-09-01T04:01:21;3.87;;;2.27;;
1404;SDS011;697;51.114;6.542;2022-09-01T04:03:49;2.40;;;2.30;;
1404;SDS011;697;51.114;6.542;2022-09-01T04:06:17;2.37;;;2.17;;
1404;SDS011;697;51.114;6.542;2022-09-01T04:08:45;2.23;;;2.03;;
1404;SDS011;697;51.114;6.542;2022-09-01T04:11:13;4.43;;;2.20;;
1404;SDS011;697;51.114;6.542;2022-09-01T04:13:42;3.50;;;2.70;;
1404;SDS011;697;51.114;6.542;2022-09-01T04:16:18;2.40;;;2.10;;
1404;SDS011;697;51.114;6.542;2022-09-01T04:19:06;3.47;;;2.50;;
1404;SDS011;697;51.114;6.542;2022-09-01T04:21:40;2.97;;;2.40;;
1404;SDS011;697;51.114;6.542;2022-09-01T04:24:08;2.63;;;2.37;;
1404;SDS011;697;51.114;6.542;2022-09-01T04:26:37;3.13;;;2.40;;
1404;SDS011;697;51.114;6.542;2022-09-01T04:29:04;4.77;;;2.80;;
1404;SDS011;697;51.114;6.542;2022-09-01T04:31:33;2.87;;;2.67;;
1404;SDS011;697;51.114;6.542;2022-09-01T04:34:02;2.93;;;2.63;;
1404;SDS011;697;51.114;6.542;2022-09-01T04:36:39;3.07;;;2.60;;
1404;SDS011;697;51.114;6.542;2022-09-01T04:39:08;2.80;;;2.60;;
1404;SDS011;697;51.114;6.542;2022-09-01T04:41:37;2.80;;;2.33;;
1404;SDS011;697;51.114;6.542;2022-09-01T04:44:05;4.67;;;2.60;;
1404;SDS011;697;51.114;6.542;2022-09-01T04:46:33;2.90;;;2.00;;
1404;SDS011;697;51.114;6.542;2022-09-01T04:49:02;4.60;;;2.80;;
1404;SDS011;697;51.114;6.542;2022-09-01T04:51:34;2.40;;;2.10;;
1404;SDS011;697;51.114;6.542;2022-09-01T04:54:04;3.20;;;2.90;;
1404;SDS011;697;51.114;6.542;2022-09-01T04:56:33;3.23;;;2.33;;
1404;SDS011;697;51.114;6.542;2022-09-01T04:59:00;2.67;;;2.30;;
1404;SDS011;697;51.114;6.542;2022-09-01T05:01:28;6.10;;;2.60;;
1404;SDS011;697;51.114;6.542;2022-09-01T05:03:55;4.20;;;2.50;;
1404;SDS011;697;51.114;6.542;2022-09-01T05:06:25;2.57;;;2.37;;
1404;SDS011;697;51.114;6.542;2022-09-01T05:08:57;3.87;;;2.20;;
1404;SDS011;697;51.114;6.542;2022-09-01T05:11:25;3.27;;;2.50;;
1404;SDS011;697;51.114;6.542;2022-09-01T05:13:53;6.93;;;2.90;;
1404;SDS011;697;51.114;6.542;2022-09-01T05:16:21;4.10;;;3.27;;
1404;SDS011;697;51.114;6.542;2022-09-01T05:18:50;2.60;;;2.40;;
1404;SDS011;697;51.114;6.542;2022-09-01T05:21:21;4.07;;;2.70;;
1404;SDS011;697;51.114;6.542;2022-09-01T05:23:52;5.47;;;2.67;;
1404;SDS011;697;51.114;6.542;2022-09-01T05:26:20;2.50;;;2.30;;
1404;SDS011;697;51.114;6.542;2022-09-01T05:28:50;3.10;;;2.40;;
1404;SDS011;697;51.114;6.542;2022-09-01T05:31:19;3.37;;;2.40;;
1404;SDS011;697;51.114;6.542;2022-09-01T05:33:46;5.13;;;2.90;;
1404;SDS011;697;51.114;6.542;2022-09-01T05:36:15;4.27;;;2.57;;
1404;SDS011;697;51.114;6.542;2022-09-01T05:38:45;2.80;;;2.60;;
1404;SDS011;697;51.114;6.542;2022-09-01T05:41:13;3.30;;;2.87;;
1404;SDS011;697;51.114;6.542;2022-09-01T05:43:42;3.87;;;3.00;;
1404;SDS011;697;51.114;6.542;2022-09-01T05:46:16;3.73;;;2.80;;
1404;SDS011;697;51.114;6.542;2022-09-01T05:48:45;3.23;;;2.93;;
1404;SDS011;697;51.114;6.542;2022-09-01T05:51:14;3.40;;;3.03;;
1404;SDS011;697;51.114;6.542;2022-09-01T05:53:44;4.20;;;3.00;;
1404;SDS011;697;51.114;6.542;2022-09-01T05:56:11;3.80;;;3.50;;
1404;SDS011;697;51.114;6.542;2022-09-01T05:58:39;3.10;;;2.80;;
1404;SDS011;697;51.114;6.542;2022-09-01T06:01:09;3.23;;;2.93;;
1404;SDS011;697;51.114;6.542;2022-09-01T06:03:46;4.90;;;3.20;;
1404;SDS011;697;51.114;6.542;2022-09-01T06:06:16;6.40;;;3.40;;
1404;SDS011;697;51.114;6.542;2022-09-01T06:08:45;3.00;;;2.70;;
1404;SDS011;697;51.114;6.542;2022-09-01T06:11:13;9.13;;;3.00;;
1404;SDS011;697;51.114;6.542;2022-09-01T06:13:41;3.63;;;2.90;;
1404;SDS011;697;51.114;6.542;2022-09-01T06:16:11;3.03;;;2.77;;
1404;SDS011;697;51.114;6.542;2022-09-01T06:18:40;3.30;;;3.00;;
1404;SDS011;697;51.114;6.542;2022-09-01T06:21:08;3.80;;;3.03;;
1404;SDS011;697;51.114;6.542;2022-09-01T06:23:39;5.43;;;3.17;;
1404;SDS011;697;51.114;6.542;2022-09-01T06:26:06;4.97;;;3.20;;
1404;SDS011;697;51.114;6.542;2022-09-01T06:28:41;5.23;;;2.50;;
1404;SDS011;697;51.114;6.542;2022-09-01T06:31:08;4.50;;;3.20;;
1404;SDS011;697;51.114;6.542;2022-09-01T06:33:36;3.70;;;3.00;;
1404;SDS011;697;51.114;6.542;2022-09-01T06:36:04;3.27;;;3.00;;
1404;SDS011;697;51.114;6.542;2022-09-01T06:38:33;3.53;;;2.30;;
1404;SDS011;697;51.114;6.542;2022-09-01T06:41:02;2.77;;;2.50;;
1404;SDS011;697;51.114;6.542;2022-09-01T06:43:36;4.63;;;2.70;;
1404;SDS011;697;51.114;6.542;2022-09-01T06:46:05;4.23;;;3.07;;
1404;SDS011;697;51.114;6.542;2022-09-01T06:48:34;3.57;;;3.17;;
1404;SDS011;697;51.114;6.542;2022-09-01T06:51:02;3.20;;;2.50;;
1404;SDS011;697;51.114;6.542;2022-09-01T06:53:33;5.70;;;3.17;;
1404;SDS011;697;51.114;6.542;2022-09-01T06:56:00;3.50;;;2.47;;
1404;SDS011;697;51.114;6.542;2022-09-01T06:58:28;4.97;;;2.83;;
1404;SDS011;697;51.114;6.542;2022-09-01T07:00:55;2.80;;;2.53;;
1404;SDS011;697;51.114;6.542;2022-09-01T07:03:22;4.93;;;2.53;;
1404;SDS011;697;51.114;6.542;2022-09-01T07:05:49;4.20;;;2.37;;
1404;SDS011;697;51.114;6.542;2022-09-01T07:08:17;2.90;;;2.07;;
1404;SDS011;697;51.114;6.542;2022-09-01T07:10:46;2.33;;;1.80;;
1404;SDS011;697;51.114;6.542;2022-09-01T07:13:15;2.90;;;1.73;;
1404;SDS011;697;51.114;6.542;2022-09-01T07:15:46;5.03;;;1.77;;
1404;SDS011;697;51.114;6.542;2022-09-01T07:18:14;4.80;;;1.90;;
1404;SDS011;697;51.114;6.542;2022-09-01T07:20:42;2.90;;;1.73;;
1404;SDS011;697;51.114;6.542;2022-09-01T07:23:11;3.13;;;1.80;;
1404;SDS011;697;51.114;6.542;2022-09-01T07:25:41;1.40;;;1.30;;
1404;SDS011;697;51.114;6.542;2022-09-01T07:28:09;1.70;;;1.60;;
1404;SDS011;697;51.114;6.542;2022-09-01T07:30:39;1.73;;;1.63;;
1404;SDS011;697;51.114;6.542;2022-09-01T07:33:07;2.33;;;1.57;;
1404;SDS011;697;51.114;6.542;2022-09-01T07:35:36;3.07;;;1.33;;
1404;SDS011;697;51.114;6.542;2022-09-01T07:38:03;2.70;;;1.77;;
1404;SDS011;697;51.114;6.542;2022-09-01T07:40:32;2.00;;;1.53;;
1404;SDS011;697;51.114;6.542;2022-09-01T07:43:04;2.87;;;1.43;;
1404;SDS011;697;51.114;6.542;2022-09-01T07:45:34;1.40;;;1.13;;
1404;SDS011;697;51.114;6.542;2022-09-01T07:48:02;2.83;;;1.97;;
1404;SDS011;697;51.114;6.542;2022-09-01T07:50:32;1.67;;;1.40;;
1404;SDS011;697;51.114;6.542;2022-09-01T07:53:01;2.23;;;1.40;;
1404;SDS011;697;51.114;6.542;2022-09-01T07:55:28;1.60;;;1.50;;
1404;SDS011;697;51.114;6.542;2022-09-01T07:57:56;1.40;;;1.27;;
1404;SDS011;697;51.114;6.542;2022-09-01T08:00:24;1.53;;;1.40;;
1404;SDS011;697;51.114;6.542;2022-09-01T08:02:52;1.87;;;1.30;;
1404;SDS011;697;51.114;6.542;2022-09-01T08:05:19;1.70;;;1.60;;
1404;SDS011;697;51.114;6.542;2022-09-01T08:07:50;4.80;;;1.80;;
1404;SDS011;697;51.114;6.542;2022-09-01T08:10:17;2.10;;;1.43;;
1404;SDS011;697;51.114;6.542;2022-09-01T08:12:44;1.67;;;1.57;;
1404;SDS011;697;51.114;6.542;2022-09-01T08:15:11;3.50;;;2.10;;
1404;SDS011;697;51.114;6.542;2022-09-01T08:17:39;1.80;;;1.50;;
1404;SDS011;697;51.114;6.542;2022-09-01T08:20:06;2.80;;;1.30;;
1404;SDS011;697;51.114;6.542;2022-09-01T08:22:34;3.30;;;1.50;;
1404;SDS011;697;51.114;6.542;2022-09-01T08:25:03;1.50;;;1.40;;
1404;SDS011;697;51.114;6.542;2022-09-01T08:27:30;4.57;;;1.50;;
1404;SDS011;697;51.114;6.542;2022-09-01T08:30:00;2.10;;;1.70;;
1404;SDS011;697;51.114;6.542;2022-09-01T08:32:27;1.67;;;1.57;;
1404;SDS011;697;51.114;6.542;2022-09-01T08:34:55;1.47;;;1.33;;
1404;SDS011;697;51.114;6.542;2022-09-01T08:37:22;2.00;;;1.23;;
1404;SDS011;697;51.114;6.542;2022-09-01T08:39:49;1.30;;;1.20;;
1404;SDS011;697;51.114;6.542;2022-09-01T08:42:17;1.93;;;1.53;;
1404;SDS011;697;51.114;6.542;2022-09-01T08:44:53;3.77;;;1.30;;
1404;SDS011;697;51.114;6.542;2022-09-01T08:47:24;1.83;;;1.10;;
1404;SDS011;697;51.114;6.542;2022-09-01T08:49:51;1.40;;;1.10;;
1404;SDS011;697;51.114;6.542;2022-09-01T08:52:21;1.23;;;1.07;;
1404;SDS011;697;51.114;6.542;2022-09-01T08:54:54;1.23;;;1.13;;
1404;SDS011;697;51.114;6.542;2022-09-01T08:57:28;2.93;;;1.30;;
1404;SDS011;697;51.114;6.542;2022-09-01T08:59:58;2.20;;;0.90;;
1404;SDS011;697;51.114;6.542;2022-09-01T09:02:28;1.83;;;1.00;;
1404;SDS011;697;51.114;6.542;2022-09-01T09:05:04;2.50;;;1.07;;
1404;SDS011;697;51.114;6.542;2022-09-01T09:07:40;2.20;;;1.33;;
1404;SDS011;697;51.114;6.542;2022-09-01T09:10:25;2.97;;;1.40;;
1404;SDS011;697;51.114;6.542;2022-09-01T09:13:00;1.87;;;1.13;;
1404;SDS011;697;51.114;6.542;2022-09-01T09:15:35;1.90;;;1.40;;
1404;SDS011;697;51.114;6.542;2022-09-01T09:18:10;1.20;;;1.10;;
1404;SDS011;697;51.114;6.542;2022-09-01T09:20:42;1.13;;;1.10;;
1404;SDS011;697;51.114;6.542;2022-09-01T09:23:15;1.07;;;1.00;;
1404;SDS011;697;51.114;6.542;2022-09-01T09:25:50;1.73;;;1.17;;
1404;SDS011;697;51.114;6.542;2022-09-01T09:28:17;2.77;;;1.07;;
1404;SDS011;697;51.114;6.542;2022-09-01T09:30:44;1.37;;;1.27;;
1404;SDS011;697;51.114;6.542;2022-09-01T09:33:29;2.80;;;1.40;;
1404;SDS011;697;51.114;6.542;2022-09-01T09:36:14;2.60;;;1.20;;
1404;SDS011;697;51.114;6.542;2022-09-01T09:38:45;1.93;;;1.33;;
1404;SDS011;697;51.114;6.542;2022-09-01T09:41:14;6.00;;;1.53;;
1404;SDS011;697;51.114;6.542;2022-09-01T09:43:44;1.47;;;1.10;;
1404;SDS011;697;51.114;6.542;2022-09-01T09:46:21;1.20;;;1.03;;
1404;SDS011;697;51.114;6.542;2022-09-01T09:49:05;4.00;;;1.17;;
1404;SDS011;697;51.114;6.542;2022-09-01T09:51:34;1.00;;;1.00;;
1404;SDS011;697;51.114;6.542;2022-09-01T09:54:13;1.83;;;1.10;;
1404;SDS011;697;51.114;6.542;2022-09-01T09:56:45;2.60;;;1.13;;
1404;SDS011;697;51.114;6.542;2022-09-01T09:59:17;3.60;;;1.10;;
1404;SDS011;697;51.114;6.542;2022-09-01T10:01:48;0.93;;;0.83;;
1404;SDS011;697;51.114;6.542;2022-09-01T10:04:29;1.63;;;1.13;;
1404;SDS011;697;51.114;6.542;2022-09-01T10:06:57;1.70;;;1.10;;
1404;SDS011;697;51.114;6.542;2022-09-01T10:09:33;1.93;;;1.20;;
1404;SDS011;697;51.114;6.542;2022-09-01T10:12:03;2.07;;;1.17;;
1404;SDS011;697;51.114;6.542;2022-09-01T10:14:32;1.13;;;1.03;;
1404;SDS011;697;51.114;6.542;2022-09-01T10:17:05;1.93;;;1.20;;
1404;SDS011;697;51.114;6.542;2022-09-01T10:19:37;1.53;;;1.13;;
1404;SDS011;697;51.114;6.542;2022-09-01T10:22:08;2.30;;;1.00;;
1404;SDS011;697;51.114;6.542;2022-09-01T10:24:37;1.97;;;1.20;;
1404;SDS011;697;51.114;6.542;2022-09-01T10:27:06;2.30;;;1.27;;
1404;SDS011;697;51.114;6.542;2022-09-01T10:29:38;2.13;;;1.10;;
1404;SDS011;697;51.114;6.542;2022-09-01T10:32:10;5.13;;;1.20;;
1404;SDS011;697;51.114;6.542;2022-09-01T10:34:41;2.30;;;1.20;;
1404;SDS011;697;51.114;6.542;2022-09-01T10:37:09;2.50;;;1.20;;
1404;SDS011;697;51.114;6.542;2022-09-01T10:42:41;1.50;;;0.83;;
1404;SDS011;697;51.114;6.542;2022-09-01T10:45:16;2.45;;;1.30;;
1404;SDS011;697;51.114;6.542;2022-09-01T10:47:48;1.73;;;1.10;;
1404;SDS011;697;51.114;6.542;2022-09-01T10:50:26;1.17;;;0.90;;
1404;SDS011;697;51.114;6.542;2022-09-01T10:52:56;2.00;;;1.10;;
1404;SDS011;697;51.114;6.542;2022-09-01T10:55:37;1.98;;;1.15;;
1404;SDS011;697;51.114;6.542;2022-09-01T10:58:14;2.50;;;1.25;;
1404;SDS011;697;51.114;6.542;2022-09-01T11:00:52;1.52;;;1.00;;
1404;SDS011;697;51.114;6.542;2022-09-01T11:03:44;2.10;;;1.05;;
1404;SDS011;697;51.114;6.542;2022-09-01T11:09:26;0.80;;;0.70;;
1404;SDS011;697;51.114;6.542;2022-09-01T11:15:02;1.10;;;0.90;;
1404;SDS011;697;51.114;6.542;2022-09-01T11:17:31;1.33;;;1.10;;
1404;SDS011;697;51.114;6.542;2022-09-01T11:20:05;2.45;;;1.20;;
1404;SDS011;697;51.114;6.542;2022-09-01T11:22:35;1.67;;;1.05;;
1404;SDS011;697;51.114;6.542;2022-09-01T11:34:07;1.63;;;0.80;;
1404;SDS011;697;51.114;6.542;2022-09-01T11:36:44;1.58;;;0.90;;
1404;SDS011;697;51.114;6.542;2022-09-01T11:39:22;1.42;;;0.90;;
1404;SDS011;697;51.114;6.542;2022-09-01T11:41:57;0.75;;;0.68;;
1404;SDS011;697;51.114;6.542;2022-09-01T11:44:27;1.55;;;0.80;;
1404;SDS011;697;51.114;6.542;2022-09-01T11:47:01;3.53;;;0.80;;
1404;SDS011;697;51.114;6.542;2022-09-01T11:49:31;1.20;;;0.88;;
1404;SDS011;697;51.114;6.542;2022-09-01T11:52:00;1.20;;;1.00;;
1404;SDS011;697;51.114;6.542;2022-09-01T11:54:35;2.55;;;0.90;;
1404;SDS011;697;51.114;6.542;2022-09-01T11:57:15;1.60;;;0.90;;
1404;SDS011;697;51.114;6.542;2022-09-01T11:59:54;1.15;;;0.98;;
1404;SDS011;697;51.114;6.542;2022-09-01T12:02:24;1.30;;;0.80;;
1404;SDS011;697;51.114;6.542;2022-09-01T12:04:55;1.55;;;0.85;;
1404;SDS011;697;51.114;6.542;2022-09-01T12:07:24;1.77;;;1.20;;
1404;SDS011;697;51.114;6.542;2022-09-01T12:10:02;2.03;;;1.00;;
1404;SDS011;697;51.114;6.542;2022-09-01T12:12:38;1.40;;;1.00;;
1404;SDS011;697;51.114;6.542;2022-09-01T12:15:07;2.67;;;1.20;;
1404;SDS011;697;51.114;6.542;2022-09-01T12:17:38;1.13;;;1.02;;
1404;SDS011;697;51.114;6.542;2022-09-01T12:20:18;2.47;;;0.90;;
1404;SDS011;697;51.114;6.542;2022-09-01T12:22:49;1.55;;;1.00;;
1404;SDS011;697;51.114;6.542;2022-09-01T12:25:17;2.58;;;1.13;;
1404;SDS011;697;51.114;6.542;2022-09-01T12:27:46;1.40;;;1.30;;
1404;SDS011;697;51.114;6.542;2022-09-01T12:30:14;2.22;;;0.88;;
1404;SDS011;697;51.114;6.542;2022-09-01T12:32:44;2.83;;;1.17;;
1404;SDS011;697;51.114;6.542;2022-09-01T12:35:13;1.73;;;1.13;;
1404;SDS011;697;51.114;6.542;2022-09-01T12:37:43;1.70;;;1.15;;
1404;SDS011;697;51.114;6.542;2022-09-01T12:40:20;2.22;;;1.10;;
1404;SDS011;697;51.114;6.542;2022-09-01T12:42:50;1.58;;;1.48;;
1404;SDS011;697;51.114;6.542;2022-09-01T12:48:05;1.98;;;1.05;;
1404;SDS011;697;51.114;6.542;2022-09-01T12:50:42;1.50;;;1.08;;
1404;SDS011;697;51.114;6.542;2022-09-01T12:53:14;1.10;;;1.00;;
1404;SDS011;697;51.114;6.542;2022-09-01T12:55:53;2.25;;;1.25;;
1404;SDS011;697;51.114;6.542;2022-09-01T12:58:24;2.00;;;1.02;;
1404;SDS011;697;51.114;6.542;2022-09-01T13:00:54;1.33;;;1.23;;
1404;SDS011;697;51.114;6.542;2022-09-01T13:03:23;1.15;;;0.90;;
1404;SDS011;697;51.114;6.542;2022-09-01T13:05:53;1.80;;;1.00;;
1404;SDS011;697;51.114;6.542;2022-09-01T13:08:22;1.33;;;0.98;;
1404;SDS011;697;51.114;6.542;2022-09-01T13:10:53;1.88;;;1.00;;
1404;SDS011;697;51.114;6.542;2022-09-01T13:13:21;1.30;;;1.20;;
1404;SDS011;697;51.114;6.542;2022-09-01T13:15:50;1.20;;;1.00;;
1404;SDS011;697;51.114;6.542;2022-09-01T13:18:19;1.23;;;0.80;;
1404;SDS011;697;51.114;6.542;2022-09-01T13:20:48;1.23;;;1.13;;
1404;SDS011;697;51.114;6.542;2022-09-01T13:23:15;1.15;;;1.00;;
1404;SDS011;697;51.114;6.542;2022-09-01T13:25:42;1.33;;;1.08;;
1404;SDS011;697;51.114;6.542;2022-09-01T13:28:11;1.25;;;1.15;;
1404;SDS011;697;51.114;6.542;2022-09-01T13:30:39;2.15;;;1.20;;
1404;SDS011;697;51.114;6.542;2022-09-01T13:33:08;1.50;;;1.30;;
1404;SDS011;697;51.114;6.542;2022-09-01T13:35:36;2.20;;;1.40;;
1404;SDS011;697;51.114;6.542;2022-09-01T13:38:05;1.23;;;1.13;;
1404;SDS011;697;51.114;6.542;2022-09-01T13:40:31;1.45;;;1.35;;
1404;SDS011;697;51.114;6.542;2022-09-01T13:42:58;1.63;;;1.50;;
1404;SDS011;697;51.114;6.542;2022-09-01T13:45:26;1.70;;;1.30;;
1404;SDS011;697;51.114;6.542;2022-09-01T13:47:52;1.20;;;1.10;;
1404;SDS011;697;51.114;6.542;2022-09-01T13:50:20;2.38;;;1.20;;
1404;SDS011;697;51.114;6.542;2022-09-01T13:52:48;1.40;;;1.30;;
1404;SDS011;697;51.114;6.542;2022-09-01T13:55:19;2.28;;;1.30;;
1404;SDS011;697;51.114;6.542;2022-09-01T13:57:47;2.60;;;1.50;;
1404;SDS011;697;51.114;6.542;2022-09-01T14:00:15;2.03;;;1.23;;
1404;SDS011;697;51.114;6.542;2022-09-01T14:02:44;1.60;;;1.10;;
1404;SDS011;697;51.114;6.542;2022-09-01T14:05:14;1.40;;;1.30;;
1404;SDS011;697;51.114;6.542;2022-09-01T14:07:42;2.15;;;1.30;;
1404;SDS011;697;51.114;6.542;2022-09-01T14:10:09;2.25;;;1.13;;
1404;SDS011;697;51.114;6.542;2022-09-01T14:12:39;1.17;;;1.08;;
1404;SDS011;697;51.114;6.542;2022-09-01T14:15:07;2.10;;;1.10;;
1404;SDS011;697;51.114;6.542;2022-09-01T14:17:35;3.70;;;1.13;;
1404;SDS011;697;51.114;6.542;2022-09-01T14:20:03;3.22;;;1.42;;
1404;SDS011;697;51.114;6.542;2022-09-01T14:22:31;1.63;;;1.17;;
1404;SDS011;697;51.114;6.542;2022-09-01T14:24:58;1.20;;;1.10;;
1404;SDS011;697;51.114;6.542;2022-09-01T14:27:25;2.65;;;1.40;;
1404;SDS011;697;51.114;6.542;2022-09-01T14:29:53;2.95;;;1.20;;
1404;SDS011;697;51.114;6.542;2022-09-01T14:32:20;4.10;;;1.67;;
1404;SDS011;697;51.114;6.542;2022-09-01T14:34:50;1.52;;;1.10;;
1404;SDS011;697;51.114;6.542;2022-09-01T14:37:17;2.63;;;0.98;;
1404;SDS011;697;51.114;6.542;2022-09-01T14:39:47;2.42;;;1.30;;
1404;SDS011;697;51.114;6.542;2022-09-01T14:42:14;1.63;;;1.17;;
1404;SDS011;697;51.114;6.542;2022-09-01T14:44:43;3.20;;;1.15;;
1404;SDS011;697;51.114;6.542;2022-09-01T14:47:11;6.75;;;1.30;;
1404;SDS011;697;51.114;6.542;2022-09-01T14:49:41;1.52;;;1.40;;
1404;SDS011;697;51.114;6.542;2022-09-01T14:52:08;3.53;;;1.30;;
1404;SDS011;697;51.114;6.542;2022-09-01T14:54:39;1.60;;;1.50;;
1404;SDS011;697;51.114;6.542;2022-09-01T14:57:07;1.60;;;1.50;;
1404;SDS011;697;51.114;6.542;2022-09-01T14:59:34;3.53;;;1.45;;
1404;SDS011;697;51.114;6.542;2022-09-01T15:02:01;1.67;;;1.58;;
1404;SDS011;697;51.114;6.542;2022-09-01T15:04:30;3.03;;;1.73;;
1404;SDS011;697;51.114;6.542;2022-09-01T15:06:58;1.27;;;1.17;;
1404;SDS011;697;51.114;6.542;2022-09-01T15:09:25;2.78;;;1.60;;
1404;SDS011;697;51.114;6.542;2022-09-01T15:11:52;1.95;;;1.60;;
1404;SDS011;697;51.114;6.542;2022-09-01T15:14:19;1.52;;;1.42;;
1404;SDS011;697;51.114;6.542;2022-09-01T15:16:46;2.20;;;1.58;;
1404;SDS011;697;51.114;6.542;2022-09-01T15:19:13;1.50;;;1.40;;
1404;SDS011;697;51.114;6.542;2022-09-01T15:21:42;2.05;;;1.48;;
1404;SDS011;697;51.114;6.542;2022-09-01T15:24:10;1.48;;;1.20;;
1404;SDS011;697;51.114;6.542;2022-09-01T15:26:38;2.20;;;1.98;;
1404;SDS011;697;51.114;6.542;2022-09-01T15:29:05;3.60;;;1.85;;
1404;SDS011;697;51.114;6.542;2022-09-01T15:31:33;2.53;;;1.70;;
1404;SDS011;697;51.114;6.542;2022-09-01T15:34:01;3.65;;;1.73;;
1404;SDS011;697;51.114;6.542;2022-09-01T15:36:30;2.45;;;1.80;;
1404;SDS011;697;51.114;6.542;2022-09-01T15:39:01;2.22;;;1.73;;
1404;SDS011;697;51.114;6.542;2022-09-01T15:41:29;1.60;;;1.50;;
1404;SDS011;697;51.114;6.542;2022-09-01T15:43:57;2.35;;;2.10;;
1404;SDS011;697;51.114;6.542;2022-09-01T15:46:24;2.80;;;2.03;;
1404;SDS011;697;51.114;6.542;2022-09-01T15:48:56;4.40;;;1.92;;
1404;SDS011;697;51.114;6.542;2022-09-01T15:51:26;2.97;;;1.90;;
1404;SDS011;697;51.114;6.542;2022-09-01T15:53:57;2.08;;;1.88;;
1404;SDS011;697;51.114;6.542;2022-09-01T15:56:27;1.80;;;1.70;;
1404;SDS011;697;51.114;6.542;2022-09-01T15:58:55;2.03;;;1.92;;
1404;SDS011;697;51.114;6.542;2022-09-01T16:01:24;4.75;;;1.85;;
1404;SDS011;697;51.114;6.542;2022-09-01T16:03:52;1.73;;;1.63;;
1404;SDS011;697;51.114;6.542;2022-09-01T16:06:20;1.80;;;1.70;;